createdAt,value
2019-02-10T00:00:24.849Z,98330.39
2019-02-10T00:02:53.229Z,98322.34
2019-02-10T00:05:21.541Z,98323.80
2019-02-10T00:07:49.918Z,98325.86
2019-02-10T00:10:18.241Z,98326.42
2019-02-10T00:13:23.044Z,98318.50
2019-02-10T00:15:51.445Z,98326.68
2019-02-10T00:18:20.176Z,98327.86
2019-02-10T00:20:48.804Z,98328.72
2019-02-10T00:23:17.101Z,98329.84
2019-02-10T00:25:45.872Z,98326.47
2019-02-10T00:28:14.246Z,98312.52
2019-02-10T00:30:42.570Z,98310.99
2019-02-10T00:33:10.872Z,98312.38
2019-02-10T00:35:39.603Z,98307.38
2019-02-10T00:38:07.906Z,98307.27
2019-02-10T00:40:36.222Z,98311.17
2019-02-10T00:43:04.856Z,98307.55
2019-02-10T00:45:33.180Z,98309.61
2019-02-10T00:48:01.484Z,98311.58
2019-02-10T00:50:29.887Z,98314.81
2019-02-10T00:52:58.325Z,98316.80
2019-02-10T00:55:26.648Z,98307.99
2019-02-10T00:57:55.243Z,98309.32
2019-02-10T01:00:23.933Z,98305.08
2019-02-10T01:02:52.229Z,98302.28
2019-02-10T01:05:22.084Z,98293.92
2019-02-10T01:07:50.309Z,98293.61
2019-02-10T01:10:19.969Z,98287.27
2019-02-10T01:12:48.271Z,98293.73
2019-02-10T01:15:16.993Z,98288.64
2019-02-10T01:17:45.684Z,98289.75
2019-02-10T01:20:14.802Z,98288.97
2019-02-10T01:22:43.173Z,98290.82
2019-02-10T01:25:11.493Z,98280.65
2019-02-10T01:27:39.871Z,98288.65
2019-02-10T01:30:11.296Z,98278.92
2019-02-10T01:32:39.665Z,98269.24
2019-02-10T01:35:08.067Z,98267.67
2019-02-10T01:37:36.725Z,98279.49
2019-02-10T01:40:07.885Z,98268.41
2019-02-10T01:42:36.188Z,98263.54
2019-02-10T01:45:07.156Z,98260.64
2019-02-10T01:47:35.458Z,98263.48
2019-02-10T01:50:05.645Z,98251.47
2019-02-10T01:52:34.035Z,98258.36
2019-02-10T01:55:02.412Z,98249.34
2019-02-10T01:57:30.737Z,98237.77
2019-02-10T01:59:59.032Z,98242.17
2019-02-10T02:02:27.349Z,98230.30
2019-02-10T02:04:55.653Z,98222.70
2019-02-10T02:07:23.972Z,98217.84
2019-02-10T02:09:52.278Z,98206.80
2019-02-10T02:12:21.094Z,98210.28
2019-02-10T02:14:49.398Z,98204.66
2019-02-10T02:17:17.730Z,98197.77
2019-02-10T02:19:46.090Z,98199.58
2019-02-10T02:22:14.416Z,98196.47
2019-02-10T02:24:42.717Z,98207.30
2019-02-10T02:27:11.045Z,98195.56
2019-02-10T02:29:39.345Z,98192.55
2019-02-10T02:32:07.669Z,98190.23
2019-02-10T02:34:35.990Z,98178.77
2019-02-10T02:37:08.066Z,98170.89
2019-02-10T02:39:34.463Z,98168.61
2019-02-10T02:42:02.788Z,98160.80
2019-02-10T02:44:31.754Z,98161.43
2019-02-10T02:47:00.421Z,98161.70
2019-02-10T02:49:28.736Z,98160.37
2019-02-10T02:51:57.053Z,98155.69
2019-02-10T02:54:25.383Z,98147.53
2019-02-10T02:56:53.686Z,98140.97
2019-02-10T02:59:21.987Z,98144.59
2019-02-10T03:01:50.392Z,98135.12
2019-02-10T03:04:18.696Z,98138.09
2019-02-10T03:06:47.029Z,98137.14
2019-02-10T03:09:15.402Z,98131.53
2019-02-10T03:11:43.727Z,98129.17
2019-02-10T03:14:12.100Z,98138.57
2019-02-10T03:16:40.434Z,98136.51
2019-02-10T03:19:08.731Z,98138.22
2019-02-10T03:21:37.043Z,98139.53
2019-02-10T03:24:05.360Z,98134.64
2019-02-10T03:26:33.664Z,98130.82
2019-02-10T03:29:02.338Z,98126.52
2019-02-10T03:31:31.092Z,98117.63
2019-02-10T03:33:59.405Z,98112.05
2019-02-10T03:36:27.708Z,98112.28
2019-02-10T03:38:56.043Z,98116.25
2019-02-10T03:41:24.355Z,98117.30
2019-02-10T03:43:52.741Z,98116.61
2019-02-10T03:46:21.054Z,98124.41
2019-02-10T03:48:49.392Z,98120.27
2019-02-10T03:51:17.680Z,98114.22
2019-02-10T03:53:46.002Z,98111.37
2019-02-10T03:56:14.303Z,98110.77
2019-02-10T03:58:42.697Z,98107.55
2019-02-10T04:01:10.994Z,98102.84
2019-02-10T04:03:39.327Z,98093.40
2019-02-10T04:06:07.621Z,98089.41
2019-02-10T04:08:36.052Z,98080.95
2019-02-10T04:11:04.436Z,98074.77
2019-02-10T04:13:33.063Z,98075.91
2019-02-10T04:16:01.373Z,98069.31
2019-02-10T04:18:29.696Z,98066.52
2019-02-10T04:20:57.997Z,98064.11
2019-02-10T04:23:26.720Z,98056.14
2019-02-10T04:25:54.997Z,98050.16
2019-02-10T04:28:23.324Z,98051.70
2019-02-10T04:30:51.697Z,98052.27
2019-02-10T04:33:20.026Z,98046.02
2019-02-10T04:35:48.324Z,98046.57
2019-02-10T04:38:16.649Z,98036.58
2019-02-10T04:40:44.953Z,98026.84
2019-02-10T04:43:13.268Z,98006.33
2019-02-10T04:45:41.578Z,98006.33
2019-02-10T04:48:09.894Z,98005.48
2019-02-10T04:50:38.192Z,98005.10
2019-02-10T04:53:06.502Z,97998.30
2019-02-10T04:55:34.829Z,98000.31
2019-02-10T04:58:03.133Z,97996.79
2019-02-10T05:00:31.456Z,97993.55
2019-02-10T05:02:59.760Z,97980.53
2019-02-10T05:05:28.084Z,97980.00
2019-02-10T05:07:56.753Z,97973.64
2019-02-10T05:10:25.086Z,97968.31
2019-02-10T05:12:53.388Z,97969.33
2019-02-10T05:15:21.709Z,97967.27
2019-02-10T05:17:50.041Z,97959.88
2019-02-10T05:20:18.343Z,97950.99
2019-02-10T05:22:46.637Z,97950.60
2019-02-10T05:25:14.975Z,97956.97
2019-02-10T05:27:43.342Z,97947.45
2019-02-10T05:30:11.734Z,97943.09
2019-02-10T05:32:40.046Z,97941.19
2019-02-10T05:35:08.743Z,97933.67
2019-02-10T05:37:37.040Z,97927.48
2019-02-10T05:40:05.707Z,97933.95
2019-02-10T05:42:34.004Z,97936.00
2019-02-10T05:45:02.331Z,97921.22
2019-02-10T05:47:30.633Z,97916.71
2019-02-10T05:49:58.953Z,97916.71
2019-02-10T05:52:27.257Z,97910.89
2019-02-10T05:54:55.582Z,97895.35
2019-02-10T05:57:23.879Z,97899.92
2019-02-10T05:59:52.207Z,97897.91
2019-02-10T06:02:24.821Z,97901.85
2019-02-10T06:04:53.526Z,97902.61
2019-02-10T06:07:22.105Z,97897.89
2019-02-10T06:09:50.952Z,97892.14
2019-02-10T06:12:19.597Z,97885.73
2019-02-10T06:14:47.902Z,97880.34
2019-02-10T06:17:16.555Z,97873.24
2019-02-10T06:19:44.924Z,97875.73
2019-02-10T06:22:13.624Z,97866.11
2019-02-10T06:24:42.211Z,97858.87
2019-02-10T06:27:10.540Z,97859.19
2019-02-10T06:29:38.841Z,97857.32
2019-02-10T06:32:07.564Z,97850.97
2019-02-10T06:34:35.932Z,97861.36
2019-02-10T06:37:04.248Z,97865.31
2019-02-10T06:39:32.553Z,97849.83
2019-02-10T06:42:00.878Z,97854.55
2019-02-10T06:44:29.185Z,97849.94
2019-02-10T06:46:57.847Z,97845.18
2019-02-10T06:49:26.223Z,97844.37
2019-02-10T06:51:55.386Z,97840.44
2019-02-10T06:54:23.700Z,97831.06
2019-02-10T06:56:52.030Z,97832.91
2019-02-10T06:59:40.362Z,97842.53
2019-02-10T07:02:10.322Z,97835.62
2019-02-10T07:04:38.631Z,97829.94
2019-02-10T07:07:07.023Z,97814.98
2019-02-10T07:09:35.324Z,97813.11
2019-02-10T07:12:39.918Z,97805.22
2019-02-10T07:15:11.402Z,97803.64
2019-02-10T07:17:43.035Z,97801.95
2019-02-10T07:20:40.579Z,97790.89
2019-02-10T07:23:39.525Z,97782.65
2019-02-10T07:26:11.003Z,97775.34
2019-02-10T07:28:40.473Z,97774.58
2019-02-10T07:31:08.849Z,97777.52
2019-02-10T07:33:58.738Z,97766.26
2019-02-10T07:36:33.144Z,97758.02
2019-02-10T07:39:06.054Z,97747.67
2019-02-10T07:41:58.961Z,97742.58
2019-02-10T07:44:39.279Z,97742.68
2019-02-10T07:47:13.612Z,97732.59
2019-02-10T07:49:48.466Z,97726.92
2019-02-10T07:52:25.869Z,97713.27
2019-02-10T07:54:57.366Z,97711.70
2019-02-10T07:57:40.925Z,97711.09
2019-02-10T08:00:27.625Z,97708.39
2019-02-10T08:02:59.113Z,97688.06
2019-02-10T08:05:36.361Z,97683.84
2019-02-10T08:08:26.697Z,97683.46
2019-02-10T08:11:10.253Z,97664.95
2019-02-10T08:13:47.704Z,97655.86
2019-02-10T08:16:28.037Z,97646.17
2019-02-10T08:19:05.525Z,97644.80
2019-02-10T08:21:37.039Z,97637.03
2019-02-10T08:24:14.197Z,97635.45
2019-02-10T08:26:57.950Z,97626.18
2019-02-10T08:29:35.142Z,97631.13
2019-02-10T08:32:21.489Z,97624.23
2019-02-10T08:35:08.058Z,97620.77
2019-02-10T08:37:55.941Z,97612.29
2019-02-10T08:40:51.509Z,97610.71
2019-02-10T08:43:29.036Z,97599.76
2019-02-10T08:46:21.434Z,97589.88
2019-02-10T08:49:07.667Z,97580.55
2019-02-10T08:51:49.584Z,97581.52
2019-02-10T08:54:17.872Z,97572.60
2019-02-10T08:56:46.173Z,97566.59
2019-02-10T08:59:14.543Z,97546.14
2019-02-10T09:01:43.150Z,97523.94
2019-02-10T09:04:11.459Z,97503.95
2019-02-10T09:06:40.139Z,97495.13
2019-02-10T09:09:08.537Z,97499.92
2019-02-10T09:11:37.324Z,97500.05
2019-02-10T09:14:05.690Z,97507.67
2019-02-10T09:16:34.008Z,97496.23
2019-02-10T09:19:02.306Z,97487.64
2019-02-10T09:21:30.626Z,97491.17
2019-02-10T09:23:59.227Z,97477.11
2019-02-10T09:26:27.557Z,97470.17
2019-02-10T09:28:55.869Z,97465.24
2019-02-10T09:31:24.212Z,97453.64
2019-02-10T09:33:52.495Z,97445.97
2019-02-10T09:36:21.143Z,97437.34
2019-02-10T09:38:49.434Z,97426.95
2019-02-10T09:41:17.760Z,97423.36
2019-02-10T09:43:46.066Z,97421.94
2019-02-10T09:46:14.458Z,97414.90
2019-02-10T09:48:42.765Z,97416.14
2019-02-10T09:51:11.414Z,97420.54
2019-02-10T09:53:39.736Z,97423.78
2019-02-10T09:56:08.037Z,97415.31
2019-02-10T09:58:36.357Z,97406.68
2019-02-10T10:01:04.642Z,97409.48
2019-02-10T10:03:33.330Z,97405.05
2019-02-10T10:06:01.658Z,97394.39
2019-02-10T10:08:30.066Z,97394.77
2019-02-10T10:10:58.602Z,97394.30
2019-02-10T10:13:26.965Z,97383.89
2019-02-10T10:15:55.257Z,97372.05
2019-02-10T10:18:23.569Z,97363.57
2019-02-10T10:20:52.538Z,97357.02
2019-02-10T10:23:20.926Z,97361.56
2019-02-10T10:25:49.236Z,97361.16
2019-02-10T10:28:17.629Z,97350.20
2019-02-10T10:30:45.930Z,97343.69
2019-02-10T10:33:14.399Z,97336.20
2019-02-10T10:35:42.820Z,97324.38
2019-02-10T10:38:11.149Z,97317.94
2019-02-10T10:40:39.444Z,97298.52
2019-02-10T10:43:07.826Z,97291.23
2019-02-10T10:45:36.374Z,97277.67
2019-02-10T10:48:04.806Z,97265.74
2019-02-10T10:50:33.111Z,97253.91
2019-02-10T10:53:01.429Z,97246.48
2019-02-10T10:55:29.739Z,97249.40
2019-02-10T10:57:58.062Z,97249.39
2019-02-10T11:00:26.421Z,97235.64
2019-02-10T11:02:55.021Z,97232.89
2019-02-10T11:05:23.331Z,97227.63
2019-02-10T11:07:51.645Z,97225.05
2019-02-10T11:10:20.005Z,97217.07
2019-02-10T11:12:48.627Z,97216.09
2019-02-10T11:15:17.659Z,97211.83
2019-02-10T11:17:45.964Z,97204.80
2019-02-10T11:20:14.272Z,97199.00
2019-02-10T11:22:42.565Z,97194.41
2019-02-10T11:25:11.712Z,97199.98
2019-02-10T11:27:40.351Z,97185.08
2019-02-10T11:30:13.699Z,97187.53
2019-02-10T11:32:42.073Z,97173.71
2019-02-10T11:35:11.029Z,97169.32
2019-02-10T11:37:39.512Z,97171.16
2019-02-10T11:40:12.402Z,97170.50
2019-02-10T11:42:40.698Z,97171.91
2019-02-10T11:45:11.623Z,97165.69
2019-02-10T11:47:40.315Z,97162.47
2019-02-10T11:50:11.201Z,97154.65
2019-02-10T11:52:39.587Z,97138.11
2019-02-10T11:55:09.416Z,97128.70
2019-02-10T11:57:37.716Z,97120.91
2019-02-10T12:00:14.177Z,97114.13
2019-02-10T12:02:42.478Z,97118.89
2019-02-10T12:05:11.366Z,97105.39
2019-02-10T12:07:39.934Z,97107.39
2019-02-10T12:10:13.298Z,97106.47
2019-02-10T12:12:41.699Z,97104.57
2019-02-10T12:15:12.541Z,97099.30
2019-02-10T12:17:40.838Z,97102.23
2019-02-10T12:20:11.405Z,97088.91
2019-02-10T12:22:40.182Z,97074.73
2019-02-10T12:25:10.030Z,97080.92
2019-02-10T12:27:38.392Z,97067.91
2019-02-10T12:30:16.879Z,97077.38
2019-02-10T12:32:45.354Z,97066.14
2019-02-10T12:35:13.819Z,97063.89
2019-02-10T12:37:42.121Z,97068.84
2019-02-10T12:40:12.262Z,97060.14
2019-02-10T12:42:40.562Z,97052.39
2019-02-10T12:45:12.054Z,97045.29
2019-02-10T12:47:40.691Z,97043.67
2019-02-10T12:50:13.570Z,97031.86
2019-02-10T12:52:41.911Z,97028.35
2019-02-10T12:55:12.461Z,97020.48
2019-02-10T12:57:41.186Z,97021.20
2019-02-10T13:00:19.986Z,97014.14
2019-02-10T13:02:48.351Z,97009.47
2019-02-10T13:05:17.026Z,96997.59
2019-02-10T13:07:45.319Z,96987.19
2019-02-10T13:10:17.806Z,96977.62
2019-02-10T13:12:45.358Z,96971.62
2019-02-10T13:15:14.089Z,96968.66
2019-02-10T13:17:42.459Z,96966.09
2019-02-10T13:20:13.116Z,96963.12
2019-02-10T13:22:41.556Z,96955.50
2019-02-10T13:25:11.784Z,96946.02
2019-02-10T13:27:40.288Z,96936.56
2019-02-10T13:30:16.536Z,96931.46
2019-02-10T13:32:44.949Z,96926.88
2019-02-10T13:35:13.322Z,96933.72
2019-02-10T13:37:41.779Z,96928.39
2019-02-10T13:40:16.972Z,96916.81
2019-02-10T13:42:45.711Z,96902.45
2019-02-10T13:45:14.083Z,96904.17
2019-02-10T13:47:42.435Z,96903.08
2019-02-10T13:50:13.839Z,96899.52
2019-02-10T13:52:42.176Z,96885.88
2019-02-10T13:55:12.825Z,96878.47
2019-02-10T13:57:41.168Z,96869.59
2019-02-10T14:00:20.803Z,96857.59
2019-02-10T14:02:49.130Z,96844.15
2019-02-10T14:05:17.440Z,96839.86
2019-02-10T14:07:45.909Z,96838.34
2019-02-10T14:10:24.871Z,96835.89
2019-02-10T14:12:46.948Z,96837.50
2019-02-10T14:15:17.102Z,96838.98
2019-02-10T14:17:45.725Z,96832.25
2019-02-10T14:20:20.482Z,96832.87
2019-02-10T14:22:48.863Z,96830.09
2019-02-10T14:25:17.201Z,96818.88
2019-02-10T14:27:45.802Z,96808.66
2019-02-10T14:30:19.156Z,96800.85
2019-02-10T14:32:47.457Z,96807.70
2019-02-10T14:35:15.788Z,96803.00
2019-02-10T14:37:44.132Z,96802.80
2019-02-10T14:40:12.590Z,96792.87
2019-02-10T14:42:40.974Z,96788.35
2019-02-10T14:45:13.976Z,96784.42
2019-02-10T14:47:42.346Z,96782.75
2019-02-10T14:50:16.808Z,96789.23
2019-02-10T14:52:45.112Z,96793.80
2019-02-10T14:55:13.512Z,96803.42
2019-02-10T14:57:41.796Z,96797.69
2019-02-10T15:00:15.122Z,96798.44
2019-02-10T15:02:43.494Z,96808.85
2019-02-10T15:05:11.887Z,96809.45
2019-02-10T15:07:40.489Z,96803.78
2019-02-10T15:10:14.126Z,96801.92
2019-02-10T15:12:42.427Z,96789.55
2019-02-10T15:15:11.686Z,96791.05
2019-02-10T15:17:40.385Z,96777.33
2019-02-10T15:20:11.008Z,96766.29
2019-02-10T15:22:39.378Z,96762.64
2019-02-10T15:25:10.280Z,96752.09
2019-02-10T15:27:38.653Z,96745.38
2019-02-10T15:30:15.052Z,96736.23
2019-02-10T15:32:43.420Z,96738.23
2019-02-10T15:35:11.810Z,96734.46
2019-02-10T15:37:40.125Z,96734.03
2019-02-10T15:40:10.391Z,96715.37
2019-02-10T15:42:38.767Z,96706.72
2019-02-10T15:45:12.377Z,96692.50
2019-02-10T15:47:40.700Z,96669.62
2019-02-10T15:50:14.743Z,96688.34
2019-02-10T15:52:43.115Z,96693.83
2019-02-10T15:55:14.585Z,96695.28
2019-02-10T15:57:42.957Z,96693.02
2019-02-10T16:00:17.775Z,96686.33
2019-02-10T16:02:46.078Z,96681.91
2019-02-10T16:05:14.447Z,96691.73
2019-02-10T16:07:42.846Z,96681.00
2019-02-10T16:10:11.917Z,96679.09
2019-02-10T16:12:40.248Z,96660.48
2019-02-10T16:15:10.991Z,96658.00
2019-02-10T16:17:39.454Z,96666.58
2019-02-10T16:20:13.317Z,96658.14
2019-02-10T16:22:41.726Z,96661.05
2019-02-10T16:25:10.080Z,96660.11
2019-02-10T16:27:38.402Z,96657.14
2019-02-10T16:30:12.999Z,96659.74
2019-02-10T16:32:49.586Z,96651.66
2019-02-10T16:35:12.430Z,96655.16
2019-02-10T16:37:40.746Z,96642.67
2019-02-10T16:40:17.932Z,96641.83
2019-02-10T16:42:46.256Z,96628.81
2019-02-10T16:45:15.104Z,96640.62
2019-02-10T16:47:43.492Z,96636.78
2019-02-10T16:50:16.981Z,96623.98
2019-02-10T16:52:45.379Z,96604.57
2019-02-10T16:55:19.131Z,96598.22
2019-02-10T16:57:47.463Z,96616.64
2019-02-10T17:00:16.779Z,96631.73
2019-02-10T17:02:45.484Z,96606.67
2019-02-10T17:05:13.862Z,96606.67
2019-02-10T17:07:42.256Z,96605.41
2019-02-10T17:10:20.887Z,96606.52
2019-02-10T17:12:49.588Z,96605.58
2019-02-10T17:15:17.975Z,96604.56
2019-02-10T17:17:46.386Z,96617.44
2019-02-10T17:20:15.933Z,96635.27
2019-02-10T17:22:44.267Z,96640.30
2019-02-10T17:25:18.828Z,96654.05
2019-02-10T17:27:47.166Z,96640.88
2019-02-10T17:30:16.450Z,96616.17
2019-02-10T17:32:44.864Z,96630.94
2019-02-10T17:35:15.157Z,96658.75
2019-02-10T17:37:43.493Z,96664.00
2019-02-10T17:40:23.290Z,96651.33
2019-02-10T17:42:51.575Z,96628.27
2019-02-10T17:45:19.880Z,96611.08
2019-02-10T17:47:48.368Z,96619.75
2019-02-10T17:50:17.446Z,96610.86
2019-02-10T17:52:45.842Z,96627.09
2019-02-10T17:55:14.140Z,96663.74
2019-02-10T17:57:42.477Z,96657.42
2019-02-10T18:00:16.234Z,96654.80
2019-02-10T18:02:44.567Z,96675.40
2019-02-10T18:05:13.265Z,96682.51
2019-02-10T18:07:41.658Z,96671.18
2019-02-10T18:10:13.271Z,96660.41
2019-02-10T18:12:41.594Z,96654.52
2019-02-10T18:15:13.330Z,96636.89
2019-02-10T18:17:49.577Z,96643.61
2019-02-10T18:20:25.063Z,96654.05
2019-02-10T18:23:12.846Z,96669.32
2019-02-10T18:25:54.505Z,96675.35
2019-02-10T18:28:39.381Z,96666.84
2019-02-10T18:31:09.672Z,96629.06
2019-02-10T18:33:45.554Z,96622.98
2019-02-10T18:36:34.180Z,96609.61
2019-02-10T18:39:04.198Z,96614.17
2019-02-10T18:41:42.971Z,96635.42
2019-02-10T18:44:21.669Z,96641.27
2019-02-10T18:46:54.060Z,96615.63
2019-02-10T18:49:26.761Z,96592.38
2019-02-10T18:52:12.070Z,96625.66
2019-02-10T18:54:42.043Z,96652.16
2019-02-10T18:57:12.355Z,96626.64
2019-02-10T19:00:00.530Z,96618.58
2019-02-10T19:02:42.788Z,96645.16
2019-02-10T19:05:12.791Z,96633.15
2019-02-10T19:07:57.425Z,96640.09
2019-02-10T19:10:43.549Z,96630.55
2019-02-10T19:13:16.364Z,96615.91
2019-02-10T19:15:58.448Z,96612.25
2019-02-10T19:18:31.545Z,96629.53
2019-02-10T19:21:07.218Z,96619.92
2019-02-10T19:23:37.538Z,96622.19
2019-02-10T19:26:10.196Z,96627.56
2019-02-10T19:28:43.210Z,96632.16
2019-02-10T19:31:13.161Z,96640.17
2019-02-10T19:33:43.149Z,96644.66
2019-02-10T19:36:13.111Z,96660.93
2019-02-10T19:38:46.043Z,96651.12
2019-02-10T19:41:34.317Z,96665.17
2019-02-10T19:44:13.279Z,96688.06
2019-02-10T19:46:46.148Z,96692.21
2019-02-10T19:49:34.233Z,96717.17
2019-02-10T19:52:07.264Z,96736.84
2019-02-10T19:54:39.949Z,96751.48
2019-02-10T19:57:15.655Z,96765.16
2019-02-10T20:00:01.795Z,96772.45
2019-02-10T20:02:48.323Z,96817.60
2019-02-10T20:05:33.252Z,96844.37
2019-02-10T20:08:11.944Z,96897.30
2019-02-10T20:10:44.644Z,96914.83
2019-02-10T20:13:20.146Z,97015.30
2019-02-10T20:15:59.107Z,97030.36
2019-02-10T20:18:44.168Z,97041.19
2019-02-10T20:21:29.052Z,97051.40
2019-02-10T20:24:15.107Z,97043.77
2019-02-10T20:26:59.727Z,97038.30
2019-02-10T20:29:32.640Z,97062.50
2019-02-10T20:32:05.343Z,97070.68
2019-02-10T20:34:37.776Z,97106.21
2019-02-10T20:37:07.769Z,97123.11
2019-02-10T20:39:46.719Z,97116.03
2019-02-10T20:42:32.761Z,97125.43
2019-02-10T20:45:05.728Z,97139.42
2019-02-10T20:47:38.612Z,97136.36
2019-02-10T20:50:26.032Z,97129.22
2019-02-10T20:53:12.303Z,97138.88
2019-02-10T20:55:54.170Z,97151.03
2019-02-10T20:58:29.696Z,97140.17
2019-02-10T21:01:14.976Z,97141.91
2019-02-10T21:03:53.956Z,97155.79
2019-02-10T21:06:40.261Z,97146.28
2019-02-10T21:09:10.278Z,97141.70
2019-02-10T21:11:42.643Z,97138.15
2019-02-10T21:14:24.572Z,97122.84
2019-02-10T21:17:10.560Z,97118.67
2019-02-10T21:19:52.915Z,97109.11
2019-02-10T21:22:32.093Z,97094.59
2019-02-10T21:25:03.287Z,97119.65
2019-02-10T21:27:45.588Z,97120.52
2019-02-10T21:30:15.548Z,97120.52
2019-02-10T21:33:04.614Z,97117.92
2019-02-10T21:35:40.136Z,97122.05
2019-02-10T21:38:10.081Z,97122.19
2019-02-10T21:40:42.816Z,97120.75
2019-02-10T21:43:15.218Z,97116.97
2019-02-10T21:45:45.318Z,97109.84
2019-02-10T21:48:15.317Z,97107.83
2019-02-10T21:50:43.684Z,97101.47
2019-02-10T21:53:12.006Z,97104.00
2019-02-10T21:55:40.311Z,97105.23
2019-02-10T21:58:08.625Z,97097.16
2019-02-10T22:00:36.920Z,97097.09
2019-02-10T22:03:05.534Z,97104.72
2019-02-10T22:05:33.959Z,97093.47
2019-02-10T22:08:02.256Z,97094.02
2019-02-10T22:10:30.897Z,97100.36
2019-02-10T22:12:59.263Z,97095.23
2019-02-10T22:15:27.580Z,97095.33
2019-02-10T22:17:55.878Z,97100.98
2019-02-10T22:20:24.196Z,97104.30
2019-02-10T22:22:52.492Z,97096.11
2019-02-10T22:25:21.180Z,97098.43
2019-02-10T22:27:49.593Z,97097.51
2019-02-10T22:30:18.080Z,97096.04
2019-02-10T22:32:46.375Z,97118.41
2019-02-10T22:35:14.695Z,97112.00
2019-02-10T22:37:42.993Z,97101.96
2019-02-10T22:40:12.552Z,97113.45
2019-02-10T22:42:45.751Z,97113.66
2019-02-10T22:45:12.997Z,97114.66
2019-02-10T22:47:41.296Z,97134.08
2019-02-10T22:50:12.752Z,97129.66
2019-02-10T22:52:41.368Z,97134.20
2019-02-10T22:55:10.318Z,97129.09
2019-02-10T22:57:38.983Z,97130.75
2019-02-10T23:00:20.918Z,97140.13
2019-02-10T23:02:49.209Z,97124.59
2019-02-10T23:05:17.732Z,97126.50
2019-02-10T23:07:46.015Z,97130.28
2019-02-10T23:10:14.332Z,97141.95
2019-02-10T23:12:42.630Z,97139.50
2019-02-10T23:15:10.944Z,97139.92
2019-02-10T23:17:39.241Z,97160.59
2019-02-10T23:20:07.902Z,97162.27
2019-02-10T23:22:36.196Z,97158.39
2019-02-10T23:25:05.173Z,97160.83
2019-02-10T23:27:33.466Z,97151.19
2019-02-10T23:30:01.780Z,97177.44
2019-02-10T23:32:30.074Z,97167.78
2019-02-10T23:34:59.081Z,97179.19
2019-02-10T23:37:27.399Z,97178.59
2019-02-10T23:39:55.698Z,97165.23
2019-02-10T23:42:24.011Z,97178.38
2019-02-10T23:44:52.308Z,97179.98
2019-02-10T23:47:20.633Z,97172.43
2019-02-10T23:49:48.924Z,97173.77
2019-02-10T23:52:17.232Z,97177.06
2019-02-10T23:54:45.961Z,97172.05
2019-02-10T23:57:14.276Z,97163.85
2019-02-10T23:59:42.573Z,97162.41
